createdAt,value
2022-12-26T00:00:21.428Z,98248.13
2022-12-26T00:02:48.085Z,98252.88
2022-12-26T00:05:14.777Z,98246.69
2022-12-26T00:07:41.371Z,98242.75
2022-12-26T00:10:08.556Z,98251.47
2022-12-26T00:12:35.454Z,98252.66
2022-12-26T00:15:02.335Z,98258.41
2022-12-26T00:17:28.912Z,98255.22
2022-12-26T00:19:55.463Z,98260.03
2022-12-26T00:22:22.128Z,98253.38
2022-12-26T00:24:48.731Z,98253.31
2022-12-26T00:27:15.291Z,98255.94
2022-12-26T00:29:41.826Z,98253.56
2022-12-26T00:32:08.414Z,98259.47
2022-12-26T00:34:35.005Z,98264.50
2022-12-26T00:37:01.572Z,98259.69
2022-12-26T00:39:28.134Z,98251.72
2022-12-26T00:41:54.649Z,98264.13
2022-12-26T00:44:21.207Z,98257.78
2022-12-26T00:46:47.801Z,98256.94
2022-12-26T00:49:14.434Z,98260.09
2022-12-26T00:51:40.981Z,98259.22
2022-12-26T00:54:07.567Z,98260.03
2022-12-26T00:56:34.114Z,98270.19
2022-12-26T00:59:00.761Z,98263.84
2022-12-26T01:01:30.874Z,98268.09
2022-12-26T01:03:58.328Z,98251.78
2022-12-26T01:06:24.883Z,98274.88
2022-12-26T01:08:52.520Z,98267.84
2022-12-26T01:11:40.268Z,98279.03
2022-12-26T01:14:10.684Z,98273.91
2022-12-26T01:16:38.525Z,98261.59
2022-12-26T01:19:05.998Z,98271.44
2022-12-26T01:21:32.643Z,98268.63
2022-12-26T01:23:59.616Z,98267.22
2022-12-26T01:26:26.347Z,98272.75
2022-12-26T01:28:53.636Z,98267.56
2022-12-26T01:31:20.797Z,98276.69
2022-12-26T01:33:47.950Z,98248.94
2022-12-26T01:36:16.231Z,98272.94
2022-12-26T01:38:42.935Z,98261.38
2022-12-26T01:41:20.390Z,98257.53
2022-12-26T01:44:03.246Z,98276.03
2022-12-26T01:46:38.257Z,98280.44
2022-12-26T01:49:13.383Z,98278.47
2022-12-26T01:51:43.825Z,98276.13
2022-12-26T01:54:38.054Z,98277.53
2022-12-26T01:57:04.724Z,98269.34
2022-12-26T01:59:35.836Z,98276.34
2022-12-26T02:02:03.660Z,98284.84
2022-12-26T02:04:55.095Z,98268.41
2022-12-26T02:07:23.103Z,98255.81
2022-12-26T02:09:50.074Z,98265.34
2022-12-26T02:12:34.892Z,98275.53
2022-12-26T02:15:10.633Z,98279.13
2022-12-26T02:17:38.540Z,98273.25
2022-12-26T02:20:22.130Z,98272.53
2022-12-26T02:23:06.821Z,98262.44
2022-12-26T02:25:39.224Z,98265.50
2022-12-26T02:28:39.836Z,98271.03
2022-12-26T02:31:15.443Z,98265.50
2022-12-26T02:34:39.315Z,98266.31
2022-12-26T02:37:21.171Z,98263.94
2022-12-26T02:40:28.224Z,98267.72
2022-12-26T02:43:03.394Z,98260.63
2022-12-26T02:45:57.713Z,98261.34
2022-12-26T02:48:48.770Z,98263.03
2022-12-26T02:51:36.563Z,98264.22
2022-12-26T02:54:47.640Z,98273.22
2022-12-26T02:57:38.670Z,98250.06
2022-12-26T03:00:34.688Z,98268.72
2022-12-26T03:03:45.096Z,98276.84
2022-12-26T03:06:47.958Z,98281.94
2022-12-26T03:09:41.400Z,98278.66
2022-12-26T03:12:52.950Z,98281.84
2022-12-26T03:15:22.386Z,98281.84
2022-12-26T03:18:02.264Z,98277.78
2022-12-26T03:20:33.402Z,98286.13
2022-12-26T03:23:13.690Z,98283.47
2022-12-26T03:26:08.868Z,98278.75
2022-12-26T03:28:35.746Z,98278.03
2022-12-26T03:31:05.949Z,98282.00
2022-12-26T03:33:56.596Z,98271.78
2022-12-26T03:36:32.897Z,98283.03
2022-12-26T03:39:09.236Z,98273.50
2022-12-26T03:42:16.319Z,98271.06
2022-12-26T03:45:15.931Z,98267.19
2022-12-26T03:48:30.620Z,98275.56
2022-12-26T03:51:26.703Z,98275.56
2022-12-26T03:54:28.263Z,98288.56
2022-12-26T03:57:19.563Z,98287.72
2022-12-26T04:00:23.617Z,98284.03
2022-12-26T04:03:11.609Z,98280.03
2022-12-26T04:06:01.840Z,98281.50
2022-12-26T04:08:59.519Z,98288.53
2022-12-26T04:11:45.507Z,98292.28
2022-12-26T04:14:40.516Z,98292.84
2022-12-26T04:17:40.715Z,98293.44
2022-12-26T04:20:07.197Z,98301.78
2022-12-26T04:22:55.271Z,98299.41
2022-12-26T04:25:50.097Z,98301.38
2022-12-26T04:28:37.154Z,98303.97
2022-12-26T04:31:32.149Z,98309.72
2022-12-26T04:34:21.620Z,98284.09
2022-12-26T04:37:17.420Z,98304.13
2022-12-26T04:40:07.096Z,98310.13
2022-12-26T04:42:53.614Z,98305.88
2022-12-26T04:45:21.766Z,98312.63
2022-12-26T04:48:09.238Z,98310.66
2022-12-26T04:50:36.020Z,98305.88
2022-12-26T04:53:02.621Z,98297.94
2022-12-26T04:55:32.732Z,98296.50
2022-12-26T04:57:59.740Z,98302.66
2022-12-26T05:00:28.356Z,98302.38
2022-12-26T05:03:19.072Z,98306.84
2022-12-26T05:06:10.397Z,98302.88
2022-12-26T05:08:59.419Z,98309.06
2022-12-26T05:11:26.543Z,98312.13
2022-12-26T05:13:54.968Z,98311.38
2022-12-26T05:16:41.893Z,98315.88
2022-12-26T05:19:35.187Z,98324.25
2022-12-26T05:22:23.469Z,98332.75
2022-12-26T05:25:10.287Z,98333.47
2022-12-26T05:28:02.742Z,98339.22
2022-12-26T05:30:29.587Z,98335.59
2022-12-26T05:33:14.468Z,98347.28
2022-12-26T05:35:41.159Z,98348.16
2022-12-26T05:38:10.155Z,98341.53
2022-12-26T05:40:36.994Z,98347.94
2022-12-26T05:43:03.539Z,98348.31
2022-12-26T05:45:30.112Z,98354.19
2022-12-26T05:48:02.971Z,98333.34
2022-12-26T05:50:29.830Z,98349.97
2022-12-26T05:52:58.375Z,98357.00
2022-12-26T05:55:26.043Z,98359.81
2022-12-26T05:57:52.624Z,98364.22
2022-12-26T06:00:19.366Z,98361.81
2022-12-26T06:02:45.989Z,98353.84
2022-12-26T06:05:12.605Z,98361.94
2022-12-26T06:07:39.199Z,98366.38
2022-12-26T06:10:06.530Z,98364.94
2022-12-26T06:12:34.185Z,98353.13
2022-12-26T06:15:00.863Z,98358.91
2022-12-26T06:17:27.436Z,98369.16
2022-12-26T06:19:53.987Z,98371.59
2022-12-26T06:22:20.652Z,98377.63
2022-12-26T06:24:47.190Z,98372.91
2022-12-26T06:27:13.699Z,98370.66
2022-12-26T06:29:40.278Z,98379.56
2022-12-26T06:32:06.830Z,98370.84
2022-12-26T06:34:33.411Z,98386.28
2022-12-26T06:36:59.968Z,98388.88
2022-12-26T06:39:26.511Z,98370.25
2022-12-26T06:41:53.048Z,98384.22
2022-12-26T06:44:19.793Z,98388.50
2022-12-26T06:46:46.525Z,98392.59
2022-12-26T06:49:13.345Z,98380.97
2022-12-26T06:51:39.921Z,98395.88
2022-12-26T06:54:06.827Z,98379.84
2022-12-26T06:56:34.332Z,98397.44
2022-12-26T06:59:06.318Z,98407.84
2022-12-26T07:01:34.991Z,98402.09
2022-12-26T07:04:02.336Z,98405.75
2022-12-26T07:06:30.350Z,98399.88
2022-12-26T07:09:00.056Z,98397.44
2022-12-26T07:11:31.418Z,98395.00
2022-12-26T07:13:58.677Z,98392.38
2022-12-26T07:16:25.635Z,98393.97
2022-12-26T07:18:57.078Z,98392.25
2022-12-26T07:21:24.828Z,98367.59
2022-12-26T07:23:51.499Z,98394.09
2022-12-26T07:26:18.282Z,98398.03
2022-12-26T07:28:44.964Z,98397.16
2022-12-26T07:31:19.068Z,98402.94
2022-12-26T07:33:52.928Z,98406.28
2022-12-26T07:36:20.043Z,98400.94
2022-12-26T07:38:47.200Z,98393.47
2022-12-26T07:41:32.829Z,98416.03
2022-12-26T07:43:59.419Z,98408.72
2022-12-26T07:46:26.023Z,98404.84
2022-12-26T07:48:52.546Z,98408.88
2022-12-26T07:51:19.053Z,98408.28
2022-12-26T07:53:45.626Z,98409.16
2022-12-26T07:56:12.215Z,98410.31
2022-12-26T07:58:38.799Z,98408.28
2022-12-26T08:01:06.917Z,98409.25
2022-12-26T08:03:34.472Z,98410.19
2022-12-26T08:06:01.456Z,98413.03
2022-12-26T08:08:28.019Z,98414.69
2022-12-26T08:11:06.281Z,98402.88
2022-12-26T08:13:33.915Z,98399.44
2022-12-26T08:16:06.079Z,98412.56
2022-12-26T08:18:32.991Z,98409.84
2022-12-26T08:20:59.871Z,98410.00
2022-12-26T08:23:26.562Z,98404.06
2022-12-26T08:25:53.107Z,98412.06
2022-12-26T08:28:19.667Z,98411.44
2022-12-26T08:30:46.873Z,98413.53
2022-12-26T08:33:13.342Z,98419.22
2022-12-26T08:35:40.417Z,98408.97
2022-12-26T08:38:08.312Z,98407.34
2022-12-26T08:40:43.468Z,98407.84
2022-12-26T08:46:08.357Z,98411.63
2022-12-26T08:48:36.042Z,98399.22
2022-12-26T08:51:05.690Z,98403.75
2022-12-26T08:53:35.739Z,98399.13
2022-12-26T08:56:07.155Z,98393.66
2022-12-26T08:58:35.290Z,98392.63
2022-12-26T09:01:16.496Z,98376.22
2022-12-26T09:03:43.960Z,98376.94
2022-12-26T09:06:11.294Z,98349.47
2022-12-26T09:08:38.957Z,98326.53
2022-12-26T09:11:06.403Z,98313.13
2022-12-26T09:13:33.717Z,98318.38
2022-12-26T09:16:26.982Z,98304.88
2022-12-26T09:18:56.607Z,98337.69
2022-12-26T09:21:23.786Z,98321.78
2022-12-26T09:23:50.867Z,98336.66
2022-12-26T09:26:19.644Z,98326.88
2022-12-26T09:28:47.197Z,98321.53
2022-12-26T09:31:20.174Z,98331.28
2022-12-26T09:33:50.085Z,98329.09
2022-12-26T09:36:25.231Z,98330.50
2022-12-26T09:38:52.505Z,98327.19
2022-12-26T09:41:19.017Z,98334.56
2022-12-26T09:43:57.678Z,98325.44
2022-12-26T09:46:39.197Z,98322.25
2022-12-26T09:49:16.402Z,98313.69
2022-12-26T09:51:45.977Z,98318.41
2022-12-26T09:54:21.972Z,98311.91
2022-12-26T09:57:09.912Z,98309.59
2022-12-26T09:59:46.433Z,98298.59
2022-12-26T10:02:19.973Z,98298.84
2022-12-26T10:04:47.034Z,98293.41
2022-12-26T10:07:22.968Z,98298.38
2022-12-26T10:10:09.969Z,98261.31
2022-12-26T10:12:38.809Z,98269.75
2022-12-26T10:15:42.057Z,98263.16
2022-12-26T10:18:37.780Z,98268.91
2022-12-26T10:21:31.963Z,98272.72
2022-12-26T10:24:05.371Z,98268.00
2022-12-26T10:26:37.678Z,98258.94
2022-12-26T10:29:10.258Z,98258.63
2022-12-26T10:31:42.641Z,98254.53
2022-12-26T10:34:17.171Z,98247.06
2022-12-26T10:37:00.327Z,98239.44
2022-12-26T10:39:40.450Z,98236.41
2022-12-26T10:42:19.183Z,98226.09
2022-12-26T10:44:45.813Z,98233.22
2022-12-26T10:47:25.986Z,98228.97
2022-12-26T10:49:53.003Z,98227.94
2022-12-26T10:52:25.742Z,98230.91
2022-12-26T10:55:29.406Z,98229.09
2022-12-26T10:57:46.290Z,98227.47
2022-12-26T11:00:23.223Z,98219.28
2022-12-26T11:03:17.208Z,98218.97
2022-12-26T11:06:10.633Z,98217.25
2022-12-26T11:08:46.947Z,98210.59
2022-12-26T11:11:21.556Z,98204.69
2022-12-26T11:13:57.638Z,98196.09
2022-12-26T11:16:37.018Z,98176.25
2022-12-26T11:19:04.074Z,98187.34
2022-12-26T11:21:32.917Z,98183.13
2022-12-26T11:24:08.510Z,98175.00
2022-12-26T11:26:35.649Z,98172.25
2022-12-26T11:29:08.143Z,98176.38
2022-12-26T11:31:34.856Z,98158.13
2022-12-26T11:34:07.427Z,98167.97
2022-12-26T11:36:36.829Z,98162.97
2022-12-26T11:39:06.467Z,98150.69
2022-12-26T11:41:44.001Z,98160.66
2022-12-26T11:44:10.601Z,98150.81
2022-12-26T11:47:13.530Z,98147.09
2022-12-26T11:50:11.694Z,98140.59
2022-12-26T11:52:47.028Z,98141.81
2022-12-26T11:55:22.505Z,98140.25
2022-12-26T11:58:10.731Z,98136.81
2022-12-26T12:00:43.381Z,98138.41
2022-12-26T12:03:16.446Z,98133.50
2022-12-26T12:05:58.493Z,98130.63
2022-12-26T12:08:34.071Z,98131.03
2022-12-26T12:11:25.408Z,98126.19
2022-12-26T12:14:06.935Z,98121.84
2022-12-26T12:16:54.603Z,98119.25
2022-12-26T12:19:37.635Z,98114.53
2022-12-26T12:22:16.267Z,98110.44
2022-12-26T12:25:02.250Z,98105.31
2022-12-26T12:27:47.567Z,98100.25
2022-12-26T12:30:39.024Z,98101.84
2022-12-26T12:33:22.808Z,98091.25
2022-12-26T12:36:13.443Z,98093.38
2022-12-26T12:39:32.565Z,98090.66
2022-12-26T12:42:31.387Z,98084.25
2022-12-26T12:45:22.428Z,98090.25
2022-12-26T12:47:54.623Z,98081.78
2022-12-26T12:50:42.705Z,98087.31
2022-12-26T12:53:31.133Z,98089.00
2022-12-26T12:56:06.734Z,98089.78
2022-12-26T12:59:05.254Z,98086.28
2022-12-26T13:01:47.277Z,98091.69
2022-12-26T13:04:22.906Z,98088.97
2022-12-26T13:06:56.605Z,98078.75
2022-12-26T13:09:31.348Z,98075.56
2022-12-26T13:12:04.276Z,98077.50
2022-12-26T13:14:39.788Z,98079.66
2022-12-26T13:17:28.079Z,98072.75
2022-12-26T13:20:03.039Z,98076.50
2022-12-26T13:23:02.083Z,98078.97
2022-12-26T13:25:35.788Z,98061.97
2022-12-26T13:28:10.006Z,98071.19
2022-12-26T13:30:38.217Z,98078.41
2022-12-26T13:33:06.127Z,98076.03
2022-12-26T13:35:59.026Z,98086.63
2022-12-26T13:38:52.295Z,98075.00
2022-12-26T13:41:39.345Z,98073.19
2022-12-26T13:44:23.488Z,98079.72
2022-12-26T13:46:50.076Z,98085.41
2022-12-26T13:49:46.485Z,98080.94
2022-12-26T13:52:16.176Z,98082.44
2022-12-26T13:54:48.851Z,98076.28
2022-12-26T13:57:40.314Z,98083.00
2022-12-26T14:00:23.681Z,98077.81
2022-12-26T14:03:19.563Z,98080.97
2022-12-26T14:05:49.817Z,98077.22
2022-12-26T14:09:09.801Z,98078.25
2022-12-26T14:12:12.015Z,98072.94
2022-12-26T14:14:53.961Z,98072.88
2022-12-26T14:17:54.442Z,98075.56
2022-12-26T14:20:20.959Z,98072.69
2022-12-26T14:23:04.456Z,98082.31
2022-12-26T14:25:51.008Z,98075.09
2022-12-26T14:28:33.026Z,98076.00
2022-12-26T14:31:31.688Z,98088.13
2022-12-26T14:34:45.724Z,98087.97
2022-12-26T14:37:43.206Z,98085.84
2022-12-26T14:40:30.508Z,98094.56
2022-12-26T14:43:12.530Z,98090.28
2022-12-26T14:45:40.392Z,98095.06
2022-12-26T14:48:16.050Z,98083.72
2022-12-26T14:50:48.317Z,98089.88
2022-12-26T14:53:30.092Z,98089.88
2022-12-26T14:56:03.984Z,98102.69
2022-12-26T14:58:49.848Z,98099.44
2022-12-26T15:01:17.768Z,98102.50
2022-12-26T15:04:05.136Z,98103.53
2022-12-26T15:06:40.767Z,98101.53
2022-12-26T15:09:47.063Z,98100.75
2022-12-26T15:12:35.289Z,98107.75
2022-12-26T15:15:22.799Z,98109.91
2022-12-26T15:18:26.654Z,98114.13
2022-12-26T15:21:23.967Z,98113.47
2022-12-26T15:23:50.489Z,98116.00
2022-12-26T15:26:44.923Z,98104.06
2022-12-26T15:29:17.366Z,98112.91
2022-12-26T15:31:56.017Z,98121.97
2022-12-26T15:34:42.218Z,98106.97
2022-12-26T15:37:18.251Z,98103.88
2022-12-26T15:40:02.861Z,98109.53
2022-12-26T15:42:35.775Z,98105.34
2022-12-26T15:45:28.134Z,98103.75
2022-12-26T15:48:26.473Z,98099.47
2022-12-26T15:51:10.403Z,98097.13
2022-12-26T15:53:59.040Z,98100.41
2022-12-26T15:56:55.717Z,98097.38
2022-12-26T15:59:39.754Z,98095.88
2022-12-26T16:02:35.571Z,98105.13
2022-12-26T16:05:25.383Z,98108.72
2022-12-26T16:08:10.051Z,98114.72
2022-12-26T16:10:36.993Z,98116.72
2022-12-26T16:13:03.604Z,98118.75
2022-12-26T16:15:32.234Z,98122.34
2022-12-26T16:18:34.427Z,98131.09
2022-12-26T16:21:23.551Z,98127.16
2022-12-26T16:23:52.753Z,98129.59
2022-12-26T16:26:27.444Z,98126.03
2022-12-26T16:28:55.315Z,98129.66
2022-12-26T16:31:26.518Z,98124.13
2022-12-26T16:33:57.333Z,98123.34
2022-12-26T16:36:29.135Z,98120.59
2022-12-26T16:38:56.553Z,98120.97
2022-12-26T16:41:30.416Z,98122.56
2022-12-26T16:44:17.979Z,98123.38
2022-12-26T16:46:45.074Z,98128.97
2022-12-26T16:49:12.323Z,98134.50
2022-12-26T16:51:48.319Z,98138.88
2022-12-26T16:54:27.370Z,98141.66
2022-12-26T16:57:23.337Z,98142.47
2022-12-26T16:59:49.949Z,98138.06
2022-12-26T17:02:39.941Z,98151.59
2022-12-26T17:05:21.651Z,98151.19
2022-12-26T17:07:50.763Z,98159.94
2022-12-26T17:10:33.195Z,98163.13
2022-12-26T17:13:03.028Z,98157.56
2022-12-26T17:15:39.393Z,98159.13
2022-12-26T17:18:33.947Z,98159.06
2022-12-26T17:21:23.114Z,98154.31
2022-12-26T17:24:05.398Z,98167.41
2022-12-26T17:26:33.140Z,98141.56
2022-12-26T17:28:59.976Z,98163.41
2022-12-26T17:31:38.297Z,98156.66
2022-12-26T17:34:20.500Z,98159.03
2022-12-26T17:39:33.902Z,98161.44
2022-12-26T17:42:02.017Z,98137.97
2022-12-26T17:44:35.617Z,98155.88
2022-12-26T17:47:13.733Z,98144.72
2022-12-26T17:49:40.288Z,98161.44
2022-12-26T17:52:07.290Z,98164.97
2022-12-26T17:54:33.881Z,98158.22
2022-12-26T17:57:00.849Z,98154.19
2022-12-26T17:59:27.458Z,98163.28
2022-12-26T18:01:54.106Z,98159.66
2022-12-26T18:04:20.728Z,98157.28
2022-12-26T18:06:47.433Z,98150.97
2022-12-26T18:09:32.294Z,98156.16
2022-12-26T18:11:58.927Z,98159.34
2022-12-26T18:14:25.521Z,98166.06
2022-12-26T18:16:52.496Z,98154.91
2022-12-26T18:19:20.267Z,98161.28
2022-12-26T18:21:47.566Z,98170.38
2022-12-26T18:24:14.131Z,98158.81
2022-12-26T18:26:40.838Z,98161.13
2022-12-26T18:29:07.858Z,98153.13
2022-12-26T18:31:34.613Z,98152.78
2022-12-26T18:34:01.446Z,98140.00
2022-12-26T18:36:32.134Z,98146.69
2022-12-26T18:38:59.300Z,98143.53
2022-12-26T18:41:26.345Z,98139.47
2022-12-26T18:43:53.208Z,98150.97
2022-12-26T18:46:22.285Z,98153.66
2022-12-26T18:48:49.660Z,98144.13
2022-12-26T18:51:16.543Z,98150.16
2022-12-26T18:53:43.227Z,98133.91
2022-12-26T18:56:16.865Z,98145.03
2022-12-26T18:58:43.570Z,98134.81
2022-12-26T19:01:13.964Z,98139.53
2022-12-26T19:03:41.953Z,98143.59
2022-12-26T19:06:26.394Z,98140.41
2022-12-26T19:08:53.234Z,98145.09
2022-12-26T19:11:20.824Z,98148.59
2022-12-26T19:13:47.626Z,98134.53
2022-12-26T19:16:15.452Z,98153.16
2022-12-26T19:18:42.299Z,98158.31
2022-12-26T19:21:13.320Z,98156.66
2022-12-26T19:23:40.705Z,98151.13
2022-12-26T19:26:12.086Z,98151.13
2022-12-26T19:28:39.302Z,98155.88
2022-12-26T19:31:10.451Z,98142.44
2022-12-26T19:33:37.353Z,98148.34
2022-12-26T19:36:05.284Z,98144.78
2022-12-26T19:38:32.123Z,98145.53
2022-12-26T19:41:13.459Z,98147.53
2022-12-26T19:43:41.120Z,98150.75
2022-12-26T19:46:11.371Z,98150.00
2022-12-26T19:48:39.485Z,98147.22
2022-12-26T19:51:12.436Z,98152.03
2022-12-26T19:53:40.314Z,98128.53
2022-12-26T19:56:15.057Z,98153.16
2022-12-26T19:58:42.377Z,98151.97
2022-12-26T20:01:10.070Z,98149.50
2022-12-26T20:03:37.365Z,98154.97
2022-12-26T20:06:15.784Z,98147.69
2022-12-26T20:08:43.843Z,98153.28
2022-12-26T20:11:25.801Z,98154.94
2022-12-26T20:13:52.404Z,98158.94
2022-12-26T20:16:54.651Z,98157.31
2022-12-26T20:19:09.045Z,98147.84
2022-12-26T20:21:36.106Z,98151.94
2022-12-26T20:24:02.845Z,98160.66
2022-12-26T20:26:29.744Z,98157.50
2022-12-26T20:29:01.235Z,98158.31
2022-12-26T20:31:29.415Z,98159.84
2022-12-26T20:33:57.808Z,98151.88
2022-12-26T20:36:27.229Z,98154.22
2022-12-26T20:38:55.297Z,98155.28
2022-12-26T20:41:22.076Z,98158.00
2022-12-26T20:43:50.364Z,98154.75
2022-12-26T20:46:22.078Z,98153.84
2022-12-26T20:48:49.757Z,98161.66
2022-12-26T20:51:23.210Z,98166.44
2022-12-26T20:53:51.201Z,98169.91
2022-12-26T20:56:18.563Z,98165.47
2022-12-26T20:58:45.303Z,98152.75
2022-12-26T21:01:16.955Z,98163.13
2022-12-26T21:03:44.059Z,98170.22
2022-12-26T21:06:18.925Z,98174.25
2022-12-26T21:08:47.943Z,98174.41
2022-12-26T21:11:23.964Z,98167.38
2022-12-26T21:13:52.265Z,98172.28
2022-12-26T21:16:28.648Z,98173.09
2022-12-26T21:18:56.150Z,98146.03
2022-12-26T21:21:26.073Z,98159.66
2022-12-26T21:23:58.240Z,98157.63
2022-12-26T21:26:25.916Z,98158.84
2022-12-26T21:29:01.121Z,98163.16
2022-12-26T21:31:30.547Z,98161.13
2022-12-26T21:34:02.382Z,98158.78
2022-12-26T21:36:30.312Z,98158.75
2022-12-26T21:38:57.759Z,98160.66
2022-12-26T21:41:25.051Z,98156.22
2022-12-26T21:43:53.380Z,98156.56
2022-12-26T21:46:20.658Z,98131.06
2022-12-26T21:48:47.489Z,98143.06
2022-12-26T21:51:15.318Z,98151.38
2022-12-26T21:53:42.961Z,98145.34
2022-12-26T21:56:11.256Z,98144.19
2022-12-26T21:58:57.053Z,98131.06
2022-12-26T22:01:25.321Z,98153.38
2022-12-26T22:04:11.154Z,98150.19
2022-12-26T22:06:38.606Z,98150.19
2022-12-26T22:09:06.247Z,98153.72
2022-12-26T22:11:51.802Z,98157.25
2022-12-26T22:14:18.679Z,98138.84
2022-12-26T22:16:45.313Z,98148.47
2022-12-26T22:19:11.883Z,98142.81
2022-12-26T22:21:38.428Z,98153.09
2022-12-26T22:24:05.241Z,98136.41
2022-12-26T22:26:31.880Z,98138.97
2022-12-26T22:28:58.833Z,98153.28
2022-12-26T22:31:32.211Z,98150.97
2022-12-26T22:34:01.625Z,98151.72
2022-12-26T22:36:29.398Z,98150.59
2022-12-26T22:38:56.557Z,98156.41
2022-12-26T22:41:23.521Z,98163.59
2022-12-26T22:43:50.671Z,98161.16
2022-12-26T22:46:17.501Z,98164.59
2022-12-26T22:48:44.073Z,98157.97
2022-12-26T22:51:17.274Z,98144.44
2022-12-26T22:53:43.851Z,98151.59
2022-12-26T22:56:11.505Z,98166.75
2022-12-26T22:58:38.127Z,98160.09
2022-12-26T23:01:15.507Z,98152.03
2022-12-26T23:03:42.535Z,98152.44
2022-12-26T23:06:21.418Z,98154.75
2022-12-26T23:08:48.997Z,98142.81
2022-12-26T23:11:15.943Z,98151.97
2022-12-26T23:13:42.981Z,98139.66
2022-12-26T23:16:13.521Z,98147.47
2022-12-26T23:19:08.466Z,98140.41
2022-12-26T23:21:39.158Z,98146.56
2022-12-26T23:24:15.636Z,98150.47
2022-12-26T23:26:45.175Z,98138.59
2022-12-26T23:29:32.102Z,98148.81
2022-12-26T23:31:58.859Z,98148.69
2022-12-26T23:34:26.152Z,98128.00
2022-12-26T23:36:52.631Z,98147.13
2022-12-26T23:39:19.550Z,98162.13
2022-12-26T23:41:46.360Z,98151.84
2022-12-26T23:44:13.250Z,98157.06
2022-12-26T23:46:41.441Z,98161.38
2022-12-26T23:49:08.340Z,98154.75
2022-12-26T23:51:34.916Z,98160.81
2022-12-26T23:54:01.659Z,98152.94
2022-12-26T23:56:28.263Z,98151.31
2022-12-26T23:58:55.406Z,98152.41
